Time;durP1;ratioP1;P1;durP2;ratioP2;P2;SDS_P1;SDS_P2;PMS_P1;PMS_P2;Temp;Humidity;BMP_temperature;BMP_pressure;BME280_temperature;BME280_humidity;BME280_pressure;Samples;Min_cycle;Max_cycle;Signal;HPM_P1;HPM_P2
2022/03/15 00:02:14;;;;;;;10.25;6.53;;;4.70;99.90;;;;;;5029505;28;20026;-75
2022/03/15 00:04:40;;;;;;;8.77;6.18;;;4.60;99.90;;;;;;5028998;28;20398;-76
2022/03/15 00:07:10;;;;;;;10.43;5.80;;;4.50;99.90;;;;;;5028220;28;20022;-75
2022/03/15 00:09:36;;;;;;;10.75;4.95;;;4.50;99.90;;;;;;5028568;28;20040;-76
2022/03/15 00:12:08;;;;;;;12.95;7.90;;;4.50;99.90;;;;;;5028453;28;20052;-75
2022/03/15 00:14:37;;;;;;;11.32;6.60;;;4.50;99.90;;;;;;5027780;28;20419;-75
2022/03/15 00:17:05;;;;;;;10.52;6.35;;;4.50;99.90;;;;;;5027691;28;20041;-74
2022/03/15 00:19:33;;;;;;;10.40;6.20;;;4.50;99.90;;;;;;5027886;28;20064;-77
2022/03/15 00:21:59;;;;;;;11.13;6.70;;;4.30;99.90;;;;;;5032170;28;20025;-75
2022/03/15 00:24:25;;;;;;;13.05;6.35;;;4.30;99.90;;;;;;5028133;28;20035;-76
2022/03/15 00:26:53;;;;;;;12.68;7.40;;;4.30;99.90;;;;;;5011416;28;20045;-76
2022/03/15 00:29:22;;;;;;;14.00;8.07;;;4.20;99.90;;;;;;5026627;28;20036;-75
2022/03/15 00:31:47;;;;;;;10.38;6.72;;;4.20;99.90;;;;;;5028481;28;20087;-76
2022/03/15 00:34:13;;;;;;;10.05;6.15;;;4.10;99.90;;;;;;5027805;28;20474;-75
2022/03/15 00:36:40;;;;;;;12.18;7.10;;;4.20;99.90;;;;;;5030683;28;20296;-76
2022/03/15 00:39:06;;;;;;;11.68;7.43;;;4.20;99.90;;;;;;5023266;28;20685;-75
2022/03/15 00:41:33;;;;;;;12.48;8.00;;;4.20;99.90;;;;;;5007699;28;20029;-75
2022/03/15 00:44:00;;;;;;;12.48;7.13;;;4.10;99.90;;;;;;5023982;28;20275;-75
2022/03/15 00:46:26;;;;;;;11.18;6.40;;;4.20;99.90;;;;;;5031366;28;20571;-75
2022/03/15 00:48:53;;;;;;;11.00;7.55;;;4.20;99.90;;;;;;5044794;28;20123;-77
2022/03/15 00:51:18;;;;;;;12.30;7.07;;;4.20;99.90;;;;;;5028400;28;20053;-76
2022/03/15 00:53:44;;;;;;;11.90;6.78;;;4.30;99.90;;;;;;5022881;28;20052;-77
2022/03/15 00:56:11;;;;;;;9.93;6.18;;;4.30;99.90;;;;;;5027048;28;20100;-75
2022/03/15 00:58:37;;;;;;;12.90;7.05;;;4.30;99.90;;;;;;5027871;28;20569;-76
2022/03/15 01:01:08;;;;;;;9.50;6.30;;;4.30;99.90;;;;;;5011690;28;20032;-75
2022/03/15 01:03:33;;;;;;;13.70;7.18;;;4.20;99.90;;;;;;5028004;28;20025;-76
2022/03/15 01:05:59;;;;;;;10.80;6.82;;;4.20;99.90;;;;;;5027814;28;20115;-75
2022/03/15 01:08:25;;;;;;;11.45;6.88;;;4.20;99.90;;;;;;5031667;28;20533;-76
2022/03/15 01:10:51;;;;;;;12.35;6.13;;;4.10;99.90;;;;;;5035549;28;20113;-77
2022/03/15 01:13:17;;;;;;;10.48;7.05;;;4.10;99.90;;;;;;5014471;28;20156;-76
2022/03/15 01:15:43;;;;;;;11.77;6.70;;;4.10;99.90;;;;;;5032492;28;20424;-76
2022/03/15 01:18:09;;;;;;;9.98;6.43;;;4.10;99.90;;;;;;5031267;28;20087;-75
2022/03/15 01:20:37;;;;;;;10.45;6.85;;;4.10;99.90;;;;;;5028504;28;20022;-75
2022/03/15 01:23:03;;;;;;;11.80;7.18;;;4.10;99.90;;;;;;5013341;28;20076;-75
2022/03/15 01:25:30;;;;;;;13.05;7.75;;;4.10;99.90;;;;;;5030642;28;20057;-75
2022/03/15 01:27:56;;;;;;;12.73;7.95;;;4.00;99.90;;;;;;4999130;28;20025;-76
2022/03/15 01:30:23;;;;;;;12.45;7.30;;;4.00;99.90;;;;;;5032040;28;20066;-76
2022/03/15 01:32:48;;;;;;;11.70;7.47;;;4.00;99.90;;;;;;5014452;28;20026;-76
2022/03/15 01:35:15;;;;;;;10.23;5.97;;;4.00;99.90;;;;;;5032345;28;20497;-76
2022/03/15 01:37:41;;;;;;;11.25;7.03;;;4.00;99.90;;;;;;5021892;28;20063;-77
2022/03/15 01:40:09;;;;;;;12.95;6.50;;;4.00;99.90;;;;;;5014690;28;20466;-76
2022/03/15 01:42:35;;;;;;;13.60;7.10;;;3.90;99.90;;;;;;5030804;28;20025;-76
2022/03/15 01:45:06;;;;;;;10.07;6.18;;;4.00;99.90;;;;;;5041534;28;20079;-76
2022/03/15 01:47:32;;;;;;;10.30;6.53;;;4.00;99.90;;;;;;5027961;28;20041;-75
2022/03/15 01:49:58;;;;;;;14.48;7.00;;;4.10;99.90;;;;;;5031174;28;20535;-77
2022/03/15 01:52:24;;;;;;;12.55;6.80;;;4.10;99.90;;;;;;5025518;28;20040;-75
2022/03/15 01:54:50;;;;;;;9.45;6.93;;;4.10;99.90;;;;;;5032632;28;20128;-75
2022/03/15 01:57:17;;;;;;;10.73;6.82;;;4.00;99.90;;;;;;5047597;28;20025;-76
2022/03/15 01:59:44;;;;;;;12.68;7.30;;;4.10;99.90;;;;;;5035083;28;20029;-76
2022/03/15 02:02:10;;;;;;;10.52;6.18;;;4.10;99.90;;;;;;5027909;28;20036;-75
2022/03/15 02:04:36;;;;;;;11.32;7.03;;;4.10;99.90;;;;;;5012787;28;20482;-76
2022/03/15 02:07:13;;;;;;;10.45;6.63;;;4.20;99.90;;;;;;5029795;28;20037;-75
2022/03/15 02:09:39;;;;;;;13.07;7.68;;;4.30;99.90;;;;;;5044248;28;20041;-76
2022/03/15 02:12:05;;;;;;;12.68;6.93;;;4.30;99.90;;;;;;5032175;28;20045;-75
2022/03/15 02:14:32;;;;;;;10.90;6.43;;;4.30;99.90;;;;;;5026617;28;20401;-75
2022/03/15 02:16:57;;;;;;;14.98;6.53;;;4.40;99.90;;;;;;5039066;28;20022;-76
2022/03/15 02:19:23;;;;;;;10.68;6.93;;;4.40;99.90;;;;;;5046044;28;20533;-75
2022/03/15 02:21:50;;;;;;;12.48;6.55;;;4.30;99.90;;;;;;5034237;28;20060;-75
2022/03/15 02:24:16;;;;;;;10.90;6.88;;;4.30;99.90;;;;;;5032289;28;20044;-75
2022/03/15 02:26:41;;;;;;;11.10;7.50;;;4.30;99.90;;;;;;5029264;28;20033;-75
2022/03/15 02:29:07;;;;;;;12.57;6.75;;;4.20;99.90;;;;;;5033484;28;20029;-75
2022/03/15 02:31:35;;;;;;;11.23;6.57;;;4.20;99.90;;;;;;5024666;28;20033;-75
2022/03/15 02:34:00;;;;;;;12.48;7.57;;;4.30;99.90;;;;;;5025951;28;20095;-75
2022/03/15 02:36:26;;;;;;;11.38;7.07;;;4.30;99.90;;;;;;5031267;28;20029;-76
2022/03/15 02:38:51;;;;;;;13.20;8.40;;;4.30;99.90;;;;;;5027163;28;20038;-76
2022/03/15 02:41:17;;;;;;;12.80;7.22;;;4.30;99.90;;;;;;5022959;28;20018;-76
2022/03/15 02:43:44;;;;;;;12.45;7.38;;;4.20;99.90;;;;;;5031322;28;20469;-77
2022/03/15 02:46:10;;;;;;;13.90;7.70;;;4.20;99.90;;;;;;5031181;28;20172;-76
2022/03/15 02:48:36;;;;;;;14.50;8.07;;;4.20;99.90;;;;;;5028385;28;20478;-75
2022/03/15 02:51:08;;;;;;;11.40;7.40;;;4.20;99.90;;;;;;5030398;28;20080;-76
2022/03/15 02:53:35;;;;;;;11.90;7.47;;;4.20;99.90;;;;;;5028967;28;20128;-76
2022/03/15 02:56:01;;;;;;;11.68;7.63;;;4.20;99.90;;;;;;5034110;28;20087;-77
2022/03/15 02:58:27;;;;;;;12.05;7.03;;;4.20;99.90;;;;;;5024677;28;20029;-75
2022/03/15 03:00:53;;;;;;;14.02;8.02;;;4.20;99.90;;;;;;5032413;28;20021;-76
2022/03/15 03:03:18;;;;;;;12.57;7.53;;;4.30;99.90;;;;;;5029614;28;20466;-75
2022/03/15 03:05:44;;;;;;;10.13;6.45;;;4.40;99.90;;;;;;5029420;28;20029;-75
2022/03/15 03:08:10;;;;;;;12.82;7.50;;;4.30;99.90;;;;;;5025763;28;20362;-76
2022/03/15 03:10:36;;;;;;;12.00;6.97;;;4.30;99.90;;;;;;5045882;28;20367;-76
2022/03/15 03:13:01;;;;;;;12.25;6.20;;;4.20;99.90;;;;;;5027272;28;20037;-75
2022/03/15 03:15:27;;;;;;;9.95;5.93;;;4.30;99.90;;;;;;5030429;28;20037;-79
2022/03/15 03:17:53;;;;;;;10.77;7.13;;;4.30;99.90;;;;;;5026802;28;20032;-77
2022/03/15 03:20:21;;;;;;;14.13;7.50;;;4.20;99.90;;;;;;5028893;28;20080;-76
2022/03/15 03:22:50;;;;;;;10.02;6.93;;;4.10;99.90;;;;;;5024923;28;20025;-75
2022/03/15 03:25:16;;;;;;;10.68;6.30;;;4.10;99.90;;;;;;5026359;28;20041;-76
2022/03/15 03:27:42;;;;;;;10.20;5.90;;;4.10;99.90;;;;;;5030645;28;20065;-77
2022/03/15 03:30:09;;;;;;;8.27;5.15;;;4.20;99.90;;;;;;5027681;28;20118;-75
2022/03/15 03:32:35;;;;;;;11.00;5.25;;;4.20;99.90;;;;;;5044210;28;20432;-76
2022/03/15 03:35:04;;;;;;;11.30;6.05;;;4.30;99.90;;;;;;5013110;28;20029;-76
2022/03/15 03:37:30;;;;;;;9.27;5.38;;;4.30;99.90;;;;;;5010000;28;20142;-76
2022/03/15 03:39:56;;;;;;;9.52;5.80;;;4.20;99.90;;;;;;5024827;28;20021;-79
2022/03/15 03:42:22;;;;;;;6.93;4.97;;;4.20;99.90;;;;;;5028206;28;20033;-77
2022/03/15 03:44:47;;;;;;;8.27;5.00;;;4.30;99.90;;;;;;5028512;28;20030;-76
2022/03/15 03:47:13;;;;;;;9.82;6.03;;;4.20;99.90;;;;;;5027948;28;20452;-76
2022/03/15 03:49:40;;;;;;;9.25;5.57;;;4.10;99.90;;;;;;5009079;28;20029;-76
2022/03/15 03:52:06;;;;;;;9.48;5.28;;;4.00;99.90;;;;;;5011650;28;20132;-75
2022/03/15 03:54:34;;;;;;;8.95;4.93;;;4.10;99.90;;;;;;5029359;28;20390;-76
2022/03/15 03:57:00;;;;;;;8.90;4.82;;;4.10;99.90;;;;;;5027448;28;20393;-77
2022/03/15 03:59:26;;;;;;;9.38;4.80;;;4.20;99.90;;;;;;5028778;28;20091;-76
2022/03/15 04:01:52;;;;;;;7.45;5.03;;;4.20;99.90;;;;;;5027194;28;20034;-77
2022/03/15 04:04:17;;;;;;;7.82;4.50;;;4.20;99.90;;;;;;5026647;28;20108;-75
2022/03/15 04:06:44;;;;;;;7.57;4.60;;;4.20;99.90;;;;;;5015727;28;20545;-76
2022/03/15 04:09:10;;;;;;;9.18;5.57;;;4.30;99.90;;;;;;5030189;28;20025;-76
2022/03/15 04:11:39;;;;;;;10.00;5.70;;;4.10;99.90;;;;;;5010686;28;20375;-76
2022/03/15 04:14:04;;;;;;;8.98;4.88;;;4.20;99.90;;;;;;5027375;28;20037;-76
2022/03/15 04:16:31;;;;;;;8.20;4.82;;;4.20;99.90;;;;;;5030599;28;20033;-76
2022/03/15 04:18:56;;;;;;;8.27;4.57;;;4.20;99.90;;;;;;5027341;28;20037;-77
2022/03/15 04:21:24;;;;;;;7.80;4.10;;;4.30;99.90;;;;;;5030720;28;20382;-76
2022/03/15 04:23:56;;;;;;;7.90;4.35;;;4.30;99.90;;;;;;5028928;28;20057;-76
2022/03/15 04:26:23;;;;;;;7.75;4.63;;;4.30;99.90;;;;;;5025682;28;20104;-76
2022/03/15 04:28:49;;;;;;;6.47;3.75;;;4.30;99.90;;;;;;5006815;28;20029;-75
2022/03/15 04:31:14;;;;;;;6.13;4.07;;;4.30;99.90;;;;;;5030419;28;20025;-76
2022/03/15 04:33:40;;;;;;;7.35;3.65;;;4.30;99.90;;;;;;5010336;28;20433;-76
2022/03/15 04:36:06;;;;;;;8.35;4.18;;;4.40;99.90;;;;;;5028124;28;20481;-76
2022/03/15 04:38:32;;;;;;;7.68;3.97;;;4.40;99.90;;;;;;5027252;28;20029;-77
2022/03/15 04:40:58;;;;;;;7.50;3.95;;;4.30;99.90;;;;;;5025675;28;20381;-77
2022/03/15 04:43:24;;;;;;;7.68;4.63;;;4.30;99.90;;;;;;5024063;28;20068;-76
2022/03/15 04:45:50;;;;;;;8.98;4.65;;;4.40;99.90;;;;;;4991713;28;1030020;-75
2022/03/15 04:48:17;;;;;;;8.10;5.00;;;4.40;99.90;;;;;;5022606;28;20478;-76
2022/03/15 04:50:43;;;;;;;9.25;4.95;;;4.30;99.90;;;;;;5029350;28;20497;-77
2022/03/15 04:53:09;;;;;;;7.97;4.80;;;4.20;99.90;;;;;;5028255;28;20129;-76
2022/03/15 04:55:34;;;;;;;9.73;5.53;;;4.20;99.90;;;;;;5027161;28;20042;-75
2022/03/15 04:58:00;;;;;;;10.05;5.35;;;4.20;99.90;;;;;;5030465;28;20025;-77
2022/03/15 05:00:25;;;;;;;9.23;5.75;;;4.20;99.90;;;;;;5027400;28;20029;-77
2022/03/15 05:02:52;;;;;;;10.40;5.07;;;4.20;99.90;;;;;;5030731;28;20502;-76
2022/03/15 05:05:18;;;;;;;8.27;4.93;;;4.30;99.90;;;;;;5027571;28;20111;-75
2022/03/15 05:07:46;;;;;;;8.55;4.97;;;4.20;99.90;;;;;;5029635;28;20369;-76
2022/03/15 05:12:56;;;;;;;6.95;4.40;;;4.20;99.90;;;;;;5027936;28;20029;-76
2022/03/15 05:15:22;;;;;;;6.70;4.25;;;4.30;99.90;;;;;;5028862;28;20038;-77
2022/03/15 05:17:47;;;;;;;9.07;5.13;;;4.30;99.90;;;;;;5027525;28;20033;-76
2022/03/15 05:20:14;;;;;;;7.68;4.28;;;4.40;99.90;;;;;;5030772;28;20033;-76
2022/03/15 05:22:40;;;;;;;8.07;4.72;;;4.40;99.90;;;;;;5030478;28;20100;-76
2022/03/15 05:25:06;;;;;;;8.93;4.63;;;4.40;99.90;;;;;;5024947;28;20562;-75
2022/03/15 05:27:35;;;;;;;9.73;6.00;;;4.40;99.90;;;;;;5027961;28;20049;-78
2022/03/15 05:30:03;;;;;;;9.45;5.80;;;4.40;99.90;;;;;;5023669;28;20478;-77
2022/03/15 05:32:29;;;;;;;10.40;5.88;;;4.30;99.90;;;;;;5028658;28;20048;-76
2022/03/15 05:34:54;;;;;;;10.73;5.55;;;4.30;99.90;;;;;;5028331;28;20561;-75
2022/03/15 05:37:20;;;;;;;7.93;4.68;;;4.20;99.90;;;;;;5026670;28;20029;-75
2022/03/15 05:39:46;;;;;;;9.57;5.28;;;4.20;99.90;;;;;;5030381;28;20539;-77
2022/03/15 05:42:12;;;;;;;7.70;4.88;;;4.20;99.90;;;;;;5026907;28;20054;-75
2022/03/15 05:44:39;;;;;;;8.68;5.25;;;4.30;99.90;;;;;;5028466;28;20041;-76
2022/03/15 05:47:04;;;;;;;8.00;4.95;;;4.30;99.90;;;;;;5024854;28;20038;-76
2022/03/15 05:49:30;;;;;;;8.02;4.93;;;4.20;99.90;;;;;;4994421;28;20041;-77
2022/03/15 05:51:56;;;;;;;7.18;5.20;;;4.40;99.90;;;;;;5028254;28;20026;-76
2022/03/15 05:54:21;;;;;;;8.65;5.13;;;4.30;99.90;;;;;;5031482;28;20091;-76
2022/03/15 05:56:47;;;;;;;9.20;5.22;;;4.30;99.90;;;;;;5031205;28;20108;-76
2022/03/15 05:59:13;;;;;;;9.55;5.25;;;4.30;99.90;;;;;;5034713;28;20375;-76
2022/03/15 06:01:39;;;;;;;9.02;5.38;;;4.30;99.90;;;;;;5026175;28;20029;-77
2022/03/15 06:04:05;;;;;;;9.75;5.32;;;4.40;99.90;;;;;;5026498;28;20094;-76
2022/03/15 06:06:31;;;;;;;7.45;5.15;;;4.40;99.90;;;;;;5031775;28;20045;-76
2022/03/15 06:08:56;;;;;;;7.93;4.85;;;4.40;99.90;;;;;;5030957;28;20175;-77
2022/03/15 06:11:22;;;;;;;9.60;4.47;;;4.40;99.90;;;;;;5031382;28;20421;-76
2022/03/15 06:13:47;;;;;;;7.35;4.90;;;4.50;99.90;;;;;;5030202;28;20852;-76
2022/03/15 06:16:13;;;;;;;7.75;4.57;;;4.50;99.90;;;;;;5030915;28;20116;-77
2022/03/15 06:18:40;;;;;;;6.93;4.40;;;4.40;99.90;;;;;;5026124;28;20112;-76
2022/03/15 06:21:05;;;;;;;7.07;4.45;;;4.50;99.90;;;;;;5023743;28;20163;-76
2022/03/15 06:23:31;;;;;;;8.88;5.00;;;4.50;99.90;;;;;;5007371;28;20025;-77
2022/03/15 06:25:56;;;;;;;9.40;4.18;;;4.50;99.90;;;;;;5029688;28;20025;-77
2022/03/15 06:28:22;;;;;;;7.18;4.65;;;4.60;99.90;;;;;;5032952;28;20124;-76
2022/03/15 06:30:48;;;;;;;8.20;4.32;;;4.60;99.90;;;;;;5033060;28;20179;-77
2022/03/15 06:33:15;;;;;;;8.90;4.95;;;4.60;99.90;;;;;;5029289;28;20162;-76
2022/03/15 06:35:46;;;;;;;7.40;4.70;;;4.60;99.90;;;;;;5006362;28;20135;-76
2022/03/15 06:38:12;;;;;;;7.95;4.82;;;4.60;99.90;;;;;;5018525;28;20022;-76
2022/03/15 06:40:41;;;;;;;10.15;4.72;;;4.70;99.90;;;;;;5043633;28;20053;-76
2022/03/15 06:43:07;;;;;;;6.25;4.63;;;4.70;99.90;;;;;;5028405;28;20481;-76
2022/03/15 06:45:33;;;;;;;7.60;5.40;;;4.70;99.90;;;;;;5044024;28;20124;-77
2022/03/15 06:47:59;;;;;;;6.25;4.47;;;4.80;99.90;;;;;;5020918;28;20044;-76
2022/03/15 06:50:25;;;;;;;7.80;5.00;;;5.10;99.90;;;;;;5025841;28;20070;-76
2022/03/15 06:52:51;;;;;;;9.18;4.70;;;5.00;99.90;;;;;;5028119;28;20123;-76
2022/03/15 06:55:16;;;;;;;6.50;4.47;;;4.90;99.90;;;;;;5026822;28;20124;-76
2022/03/15 06:57:42;;;;;;;8.43;4.53;;;5.00;99.90;;;;;;5031027;28;20033;-76
2022/03/15 07:00:11;;;;;;;9.82;5.00;;;5.00;99.90;;;;;;5026562;28;20025;-76
2022/03/15 07:02:36;;;;;;;7.25;4.68;;;5.00;99.90;;;;;;5022913;28;20479;-76
2022/03/15 07:05:03;;;;;;;6.78;4.53;;;5.10;99.90;;;;;;5022243;28;20030;-76
2022/03/15 07:07:28;;;;;;;5.70;3.72;;;5.20;99.90;;;;;;5007588;28;20022;-77
2022/03/15 07:09:54;;;;;;;6.53;3.90;;;5.40;99.90;;;;;;5027965;28;20120;-76
2022/03/15 07:12:20;;;;;;;6.68;4.13;;;5.30;99.90;;;;;;5027416;28;21906;-76
2022/03/15 07:14:47;;;;;;;9.93;4.25;;;5.40;99.90;;;;;;5010334;28;20041;-76
2022/03/15 07:17:13;;;;;;;6.55;3.72;;;5.40;99.90;;;;;;5023469;28;20025;-76
2022/03/15 07:19:38;;;;;;;6.32;3.70;;;5.50;99.90;;;;;;5042190;28;20414;-76
2022/03/15 07:22:07;;;;;;;5.93;3.95;;;5.50;99.90;;;;;;5011891;28;20022;-77
2022/03/15 07:24:35;;;;;;;9.85;4.13;;;5.60;99.90;;;;;;5016287;28;20401;-76
2022/03/15 07:27:01;;;;;;;6.13;3.45;;;5.60;99.90;;;;;;5026683;28;20132;-76
2022/03/15 07:29:27;;;;;;;6.10;3.63;;;5.60;99.90;;;;;;5026481;28;20029;-76
2022/03/15 07:31:55;;;;;;;4.95;3.53;;;5.80;99.90;;;;;;5027944;28;20018;-76
2022/03/15 07:34:21;;;;;;;6.93;3.70;;;5.80;99.90;;;;;;5024638;28;20128;-76
2022/03/15 07:36:47;;;;;;;6.70;3.95;;;5.90;99.90;;;;;;5033967;28;20508;-76
2022/03/15 07:39:12;;;;;;;4.90;3.08;;;5.90;99.90;;;;;;5026040;28;20029;-76
2022/03/15 07:41:40;;;;;;;5.82;3.03;;;6.00;99.90;;;;;;5028583;28;20037;-76
2022/03/15 07:44:12;;;;;;;6.05;3.30;;;6.00;99.90;;;;;;5006424;28;20463;-76
2022/03/15 07:46:40;;;;;;;5.25;3.70;;;6.10;99.90;;;;;;5011419;28;20049;-76
2022/03/15 07:49:05;;;;;;;7.07;3.80;;;6.10;99.90;;;;;;5027184;28;20104;-76
2022/03/15 07:51:31;;;;;;;5.90;3.10;;;6.20;99.90;;;;;;5028163;28;20036;-76
2022/03/15 07:53:57;;;;;;;4.82;3.35;;;6.20;99.90;;;;;;5027903;28;20029;-76
2022/03/15 07:56:23;;;;;;;6.43;3.17;;;6.30;99.90;;;;;;5027364;28;20116;-76
2022/03/15 07:58:48;;;;;;;5.45;3.85;;;6.30;99.90;;;;;;5028728;28;20124;-76
2022/03/15 08:01:14;;;;;;;6.05;3.30;;;6.40;99.90;;;;;;5031513;28;20041;-76
2022/03/15 08:03:40;;;;;;;6.80;2.80;;;6.50;99.90;;;;;;5009950;28;20037;-77
2022/03/15 08:06:05;;;;;;;4.20;2.45;;;6.60;99.90;;;;;;5028450;28;20030;-77
2022/03/15 08:08:31;;;;;;;3.90;2.45;;;6.70;99.90;;;;;;5031627;28;20493;-76
2022/03/15 08:10:57;;;;;;;4.63;2.72;;;6.70;99.90;;;;;;5010546;28;20030;-77
2022/03/15 08:13:23;;;;;;;6.85;2.65;;;6.70;99.90;;;;;;5041073;28;20057;-76
2022/03/15 08:15:48;;;;;;;5.65;3.35;;;6.80;99.90;;;;;;4996671;28;20045;-77
2022/03/15 08:18:14;;;;;;;6.18;3.70;;;6.90;99.90;;;;;;5032359;28;20055;-77
2022/03/15 08:20:40;;;;;;;10.35;4.82;;;7.00;99.90;;;;;;5027935;28;20037;-76
2022/03/15 08:23:07;;;;;;;4.22;3.10;;;7.00;99.90;;;;;;5008902;28;20029;-77
2022/03/15 08:25:33;;;;;;;7.80;4.80;;;7.10;99.90;;;;;;5026526;28;20444;-77
2022/03/15 08:28:00;;;;;;;7.15;4.68;;;7.10;99.90;;;;;;5027004;28;20030;-77
2022/03/15 08:30:30;;;;;;;6.78;4.40;;;7.10;99.90;;;;;;5033458;28;20036;-76
2022/03/15 08:32:55;;;;;;;5.70;4.40;;;7.20;99.90;;;;;;5007924;28;20040;-77
2022/03/15 08:35:21;;;;;;;6.75;3.47;;;7.20;99.90;;;;;;5042803;28;20038;-77
2022/03/15 08:37:51;;;;;;;8.07;3.75;;;7.20;99.90;;;;;;5016388;28;20071;-76
2022/03/15 08:40:19;;;;;;;7.75;3.60;;;7.30;99.90;;;;;;5009873;28;20045;-77
2022/03/15 08:42:46;;;;;;;4.28;2.70;;;7.30;99.90;;;;;;5027435;28;20029;-78
2022/03/15 08:45:12;;;;;;;5.55;2.70;;;7.40;99.90;;;;;;5023553;28;20071;-77
2022/03/15 08:47:38;;;;;;;4.18;2.80;;;7.50;99.90;;;;;;5042152;28;20057;-77
2022/03/15 08:50:05;;;;;;;5.35;2.28;;;7.60;99.90;;;;;;5042745;28;20041;-78
2022/03/15 08:52:31;;;;;;;6.03;2.85;;;7.60;99.90;;;;;;5025744;28;20057;-77
2022/03/15 08:54:57;;;;;;;3.92;2.58;;;7.80;99.90;;;;;;5028810;28;20041;-77
2022/03/15 08:57:23;;;;;;;8.15;1.95;;;7.80;99.90;;;;;;5026590;28;20036;-77
2022/03/15 08:59:49;;;;;;;4.35;2.05;;;7.90;99.90;;;;;;5031037;28;20291;-77
2022/03/15 09:02:17;;;;;;;4.63;2.25;;;8.00;99.90;;;;;;5026278;28;20118;-78
2022/03/15 09:04:43;;;;;;;4.32;2.15;;;8.00;99.90;;;;;;5024317;28;20033;-77
2022/03/15 09:07:09;;;;;;;5.97;2.35;;;8.10;99.90;;;;;;5042803;28;20048;-79
2022/03/15 09:09:34;;;;;;;4.93;1.83;;;8.20;99.90;;;;;;5040879;28;20030;-77
2022/03/15 09:12:01;;;;;;;7.68;1.90;;;8.30;99.90;;;;;;5021628;28;20443;-78
2022/03/15 09:14:27;;;;;;;6.25;1.60;;;8.40;99.90;;;;;;5010477;28;20046;-77
2022/03/15 09:16:52;;;;;;;3.28;1.45;;;8.50;99.90;;;;;;5030766;28;20504;-77
2022/03/15 09:19:18;;;;;;;5.85;1.73;;;8.50;99.90;;;;;;5025109;28;20033;-77
2022/03/15 09:21:44;;;;;;;5.10;1.50;;;8.60;99.90;;;;;;5026679;28;20026;-77
2022/03/15 09:24:10;;;;;;;5.10;2.00;;;8.70;99.90;;;;;;5026070;28;20888;-77
2022/03/15 09:26:36;;;;;;;3.58;1.63;;;8.70;99.90;;;;;;5027358;28;20425;-77
2022/03/15 09:29:02;;;;;;;3.67;1.42;;;8.80;99.90;;;;;;5026230;28;20053;-78
2022/03/15 09:31:28;;;;;;;6.10;2.22;;;8.90;99.90;;;;;;5028516;28;20030;-78
2022/03/15 09:33:54;;;;;;;6.53;2.05;;;8.90;99.90;;;;;;5045076;28;20045;-77
2022/03/15 09:36:19;;;;;;;4.28;2.00;;;9.00;99.90;;;;;;5008632;28;20058;-77
2022/03/15 09:38:45;;;;;;;4.20;1.73;;;9.10;99.90;;;;;;5032232;28;20033;-77
2022/03/15 09:41:14;;;;;;;3.45;2.08;;;9.10;99.90;;;;;;5031347;28;20404;-77
2022/03/15 09:43:42;;;;;;;4.57;2.17;;;9.20;99.90;;;;;;5030558;28;20061;-77
2022/03/15 09:46:08;;;;;;;6.75;2.42;;;9.20;99.90;;;;;;5028358;28;20057;-78
2022/03/15 09:48:35;;;;;;;4.60;1.67;;;9.20;99.90;;;;;;5045359;28;20022;-77
2022/03/15 09:51:09;;;;;;;4.63;2.63;;;9.30;99.90;;;;;;5034533;28;20037;-77
2022/03/15 09:53:37;;;;;;;6.13;2.63;;;9.40;99.90;;;;;;5030223;28;20057;-77
2022/03/15 09:56:03;;;;;;;5.45;2.60;;;9.50;99.90;;;;;;5026064;28;20489;-77
2022/03/15 09:58:29;;;;;;;5.60;2.50;;;9.50;99.90;;;;;;5030222;28;20060;-77
2022/03/15 10:00:57;;;;;;;6.10;3.25;;;9.50;99.90;;;;;;5025573;28;20068;-77
2022/03/15 10:03:25;;;;;;;8.70;2.72;;;9.60;99.90;;;;;;5030503;28;20393;-77
2022/03/15 10:05:51;;;;;;;6.80;3.20;;;9.70;99.90;;;;;;5029084;28;20045;-77
2022/03/15 10:08:18;;;;;;;7.35;3.30;;;9.70;99.90;;;;;;5024079;28;20351;-77
2022/03/15 10:10:49;;;;;;;6.03;3.03;;;9.70;99.90;;;;;;5045960;28;20029;-78
2022/03/15 10:13:15;;;;;;;7.75;3.42;;;9.80;99.90;;;;;;5030030;28;20116;-77
2022/03/15 10:16:03;;;;;;;6.35;3.10;;;9.90;99.90;;;;;;5013097;28;20079;-77
2022/03/15 10:18:29;;;;;;;5.35;2.45;;;10.00;99.90;;;;;;5024082;28;20757;-78
2022/03/15 10:20:56;;;;;;;6.95;2.47;;;10.10;99.90;;;;;;5012743;28;20074;-77
2022/03/15 10:23:29;;;;;;;6.20;2.42;;;10.00;99.90;;;;;;5033956;28;20044;-77
2022/03/15 10:25:56;;;;;;;6.45;2.28;;;10.10;99.90;;;;;;5044220;28;20567;-77
2022/03/15 10:28:23;;;;;;;4.97;2.10;;;10.10;99.90;;;;;;5008957;28;20041;-77
2022/03/15 10:30:49;;;;;;;7.25;2.13;;;10.20;99.90;;;;;;5012867;28;20072;-78
2022/03/15 10:33:19;;;;;;;5.20;2.28;;;10.30;99.90;;;;;;5026803;28;20025;-78
2022/03/15 10:35:47;;;;;;;5.90;2.88;;;10.30;99.90;;;;;;5043649;28;20041;-77
2022/03/15 10:38:13;;;;;;;6.60;1.90;;;10.40;99.90;;;;;;5006278;28;20068;-77
2022/03/15 10:40:45;;;;;;;5.70;1.83;;;10.40;99.90;;;;;;5028294;28;20208;-77
2022/03/15 10:43:17;;;;;;;4.32;1.50;;;10.40;99.90;;;;;;5043579;28;20112;-77
2022/03/15 10:45:47;;;;;;;4.10;1.35;;;10.50;99.90;;;;;;5026059;28;20025;-77
2022/03/15 10:48:32;;;;;;;5.38;1.52;;;10.50;99.90;;;;;;5028273;28;20139;-77
2022/03/15 10:51:04;;;;;;;4.15;1.38;;;10.60;99.90;;;;;;5044669;28;20029;-77
2022/03/15 10:53:38;;;;;;;6.28;1.10;;;10.60;99.90;;;;;;5043921;28;20037;-77
2022/03/15 10:56:16;;;;;;;5.65;1.20;;;10.60;99.90;;;;;;5027817;28;20040;-78
2022/03/15 10:58:59;;;;;;;3.45;1.23;;;10.60;99.90;;;;;;5044331;28;20500;-77
2022/03/15 11:01:26;;;;;;;3.78;1.27;;;10.70;99.90;;;;;;5029142;28;20083;-77
2022/03/15 11:04:00;;;;;;;4.18;1.38;;;10.70;99.90;;;;;;5010007;28;20095;-77
2022/03/15 11:06:38;;;;;;;3.05;0.93;;;10.80;99.90;;;;;;5028277;28;20428;-77
2022/03/15 11:09:18;;;;;;;6.47;1.90;;;10.80;99.90;;;;;;5034607;28;20034;-78
2022/03/15 11:12:04;;;;;;;5.43;1.25;;;10.80;99.90;;;;;;5023359;28;20099;-77
2022/03/15 11:14:48;;;;;;;2.97;0.93;;;10.80;99.90;;;;;;5028271;28;20045;-77
2022/03/15 11:17:18;;;;;;;5.00;1.13;;;10.80;99.90;;;;;;5024433;28;20033;-77
2022/03/15 11:19:52;;;;;;;2.88;1.17;;;10.80;99.90;;;;;;5008102;28;20037;-77
2022/03/15 11:22:31;;;;;;;4.03;1.25;;;10.90;99.90;;;;;;5026418;28;20026;-77
2022/03/15 11:25:08;;;;;;;3.78;1.10;;;10.90;99.90;;;;;;5027895;28;20037;-77
2022/03/15 11:27:42;;;;;;;4.95;1.17;;;10.90;99.90;;;;;;5045066;28;20028;-79
2022/03/15 11:30:11;;;;;;;6.78;1.50;;;11.00;99.90;;;;;;5007699;28;20064;-77
2022/03/15 11:32:39;;;;;;;2.95;1.35;;;10.90;99.90;;;;;;5028537;28;20041;-78
2022/03/15 11:35:10;;;;;;;3.50;1.20;;;11.00;99.90;;;;;;5030399;28;20045;-77
2022/03/15 11:37:37;;;;;;;4.78;1.23;;;11.10;99.90;;;;;;5015022;28;20107;-77
2022/03/15 11:40:09;;;;;;;4.93;1.00;;;11.20;99.90;;;;;;5010993;28;20064;-77
2022/03/15 11:42:42;;;;;;;3.92;1.17;;;11.20;99.90;;;;;;5025425;28;20021;-78
2022/03/15 11:45:17;;;;;;;4.20;1.40;;;11.20;99.90;;;;;;5043509;28;20040;-77
2022/03/15 11:48:18;;;;;;;3.88;0.90;;;11.10;99.90;;;;;;5027270;28;20347;-78
2022/03/15 11:51:09;;;;;;;3.25;0.90;;;11.20;99.90;;;;;;5019590;28;20038;-78
2022/03/15 11:53:47;;;;;;;2.30;0.80;;;11.20;99.90;;;;;;5024150;28;20025;-78
2022/03/15 11:56:43;;;;;;;3.60;0.80;;;11.30;99.90;;;;;;5000824;28;20420;-78
2022/03/15 11:59:09;;;;;;;3.50;1.00;;;11.30;99.90;;;;;;5001748;28;20048;-78
2022/03/15 12:01:49;;;;;;;1.58;0.70;;;11.30;99.90;;;;;;5022234;28;20025;-77
2022/03/15 12:04:24;;;;;;;;;;;11.30;99.90;;;;;;5018847;28;20029;-78
2022/03/15 12:07:00;;;;;;;3.70;0.80;;;11.20;99.90;;;;;;5019794;28;19916;-76
2022/03/15 12:09:31;;;;;;;2.97;0.80;;;11.10;99.90;;;;;;5039263;28;20480;-78
2022/03/15 12:12:08;;;;;;;4.00;1.08;;;11.00;99.90;;;;;;5000271;28;20076;-77
2022/03/15 12:14:48;;;;;;;2.22;0.80;;;11.00;99.90;;;;;;5023175;28;20041;-77
2022/03/15 12:17:15;;;;;;;7.13;1.30;;;11.10;99.90;;;;;;5024199;28;20535;-77
2022/03/15 12:19:47;;;;;;;4.63;1.15;;;11.10;99.90;;;;;;5023624;28;20458;-77
2022/03/15 12:22:27;;;;;;;4.80;0.95;;;10.90;99.90;;;;;;5000475;28;20083;-76
2022/03/15 12:25:05;;;;;;;5.57;1.20;;;11.00;99.90;;;;;;5002417;28;20064;-77
2022/03/15 12:27:46;;;;;;;7.22;1.00;;;11.10;99.90;;;;;;5022366;28;20060;-77
2022/03/15 12:30:18;;;;;;;2.30;0.98;;;11.10;99.90;;;;;;5039310;28;20505;-77
2022/03/15 12:32:52;;;;;;;3.88;0.80;;;11.20;99.90;;;;;;5022323;28;20025;-77
2022/03/15 12:35:17;;;;;;;4.38;1.00;;;11.20;99.90;;;;;;5015448;28;20041;-77
2022/03/15 12:37:46;;;;;;;4.65;1.42;;;11.20;99.90;;;;;;5014416;28;20056;-77
2022/03/15 12:40:12;;;;;;;4.85;1.50;;;11.30;99.90;;;;;;4999887;28;20109;-77
2022/03/15 12:42:50;;;;;;;3.90;1.10;;;11.30;99.90;;;;;;5023124;28;20041;-78
2022/03/15 12:45:15;;;;;;;2.90;0.82;;;11.40;99.90;;;;;;5005110;28;20034;-77
2022/03/15 12:47:43;;;;;;;5.15;0.90;;;11.50;99.90;;;;;;5011473;28;20497;-75
2022/03/15 12:50:21;;;;;;;4.18;1.10;;;11.50;99.90;;;;;;5001660;28;20103;-77
2022/03/15 12:53:12;;;;;;;5.18;0.93;;;11.60;99.90;;;;;;5023921;28;20057;-75
2022/03/15 12:55:42;;;;;;;4.03;1.00;;;11.60;99.90;;;;;;5004861;28;20052;-77
2022/03/15 12:58:12;;;;;;;2.80;0.70;;;11.70;99.90;;;;;;5037437;28;20557;-77
2022/03/15 13:00:39;;;;;;;;;;;11.70;99.90;;;;;;5016674;28;20053;-77